Time;durP1;ratioP1;P1;durP2;ratioP2;P2;SDS_P1;SDS_P2;PMS_P1;PMS_P2;Temp;Humidity;BMP_temperature;BMP_pressure;BME280_temperature;BME280_humidity;BME280_pressure;Samples;Min_cycle;Max_cycle;Signal;HPM_P1;HPM_P2
2022/06/18 00:01:40;;;;;;;12.32;2.63;;;21.90;92.00;;;;;;5016013;28;20065;-74
2022/06/18 00:04:09;;;;;;;7.80;3.17;;;21.90;92.00;;;;;;5022515;28;20408;-73
2022/06/18 00:07:03;;;;;;;5.25;3.03;;;21.90;92.20;;;;;;5024823;28;20072;-74
2022/06/18 00:09:35;;;;;;;11.98;3.00;;;21.80;92.00;;;;;;5007403;28;20136;-74
2022/06/18 00:14:55;;;;;;;5.18;2.80;;;21.80;92.30;;;;;;5022935;28;20088;-74
2022/06/18 00:17:21;;;;;;;5.55;2.92;;;21.80;92.40;;;;;;5022276;28;20104;-74
2022/06/18 00:19:50;;;;;;;8.25;2.95;;;21.80;92.50;;;;;;5026864;28;20041;-74
2022/06/18 00:22:25;;;;;;;7.88;3.13;;;21.80;92.60;;;;;;5020274;28;20072;-74
2022/06/18 00:24:51;;;;;;;5.82;2.75;;;21.70;92.60;;;;;;5025217;28;20079;-74
2022/06/18 00:27:18;;;;;;;8.23;3.42;;;21.80;92.80;;;;;;5026121;28;20045;-74
2022/06/18 00:29:45;;;;;;;5.00;3.22;;;21.70;92.70;;;;;;5024191;28;20170;-74
2022/06/18 00:32:11;;;;;;;9.07;3.45;;;21.70;92.70;;;;;;5025431;28;20080;-74
2022/06/18 00:34:37;;;;;;;9.23;3.10;;;21.70;92.70;;;;;;5024921;28;20569;-74
2022/06/18 00:37:04;;;;;;;5.72;3.15;;;21.70;92.60;;;;;;5023957;28;20468;-74
2022/06/18 00:39:30;;;;;;;10.85;3.22;;;21.70;92.50;;;;;;5024010;28;20045;-73
2022/06/18 00:42:03;;;;;;;8.32;3.38;;;21.70;92.40;;;;;;5024526;28;20049;-74
2022/06/18 00:44:38;;;;;;;9.60;3.38;;;21.80;92.40;;;;;;5027280;28;20048;-74
2022/06/18 00:47:27;;;;;;;9.15;3.40;;;21.70;92.30;;;;;;5023818;28;20580;-75
2022/06/18 00:50:06;;;;;;;5.07;3.17;;;21.70;92.40;;;;;;5015907;28;20061;-73
2022/06/18 00:52:42;;;;;;;8.90;3.75;;;21.60;92.50;;;;;;5022972;28;20500;-75
2022/06/18 00:55:27;;;;;;;7.22;3.65;;;21.60;92.60;;;;;;5025920;28;20041;-74
2022/06/18 00:57:59;;;;;;;9.88;3.72;;;21.60;92.50;;;;;;5019817;28;20460;-73
2022/06/18 01:00:38;;;;;;;8.95;3.58;;;21.60;92.40;;;;;;5023164;28;20133;-74
2022/06/18 01:03:05;;;;;;;8.18;4.03;;;21.60;92.40;;;;;;5015018;28;20041;-74
2022/06/18 01:05:38;;;;;;;10.85;3.83;;;21.60;92.30;;;;;;5021573;28;20137;-73
2022/06/18 01:08:13;;;;;;;5.25;3.15;;;21.60;92.20;;;;;;5025273;28;20170;-73
2022/06/18 01:10:42;;;;;;;9.43;3.55;;;21.60;92.10;;;;;;5020216;28;20042;-73
2022/06/18 01:13:11;;;;;;;7.10;3.67;;;21.50;92.10;;;;;;5016216;28;20045;-73
2022/06/18 01:15:39;;;;;;;7.63;3.80;;;21.60;92.00;;;;;;5025003;28;20507;-74
2022/06/18 01:18:06;;;;;;;9.35;4.28;;;21.60;92.00;;;;;;5024848;28;20470;-74
2022/06/18 01:20:37;;;;;;;10.80;3.75;;;21.60;92.00;;;;;;5023035;28;20053;-73
2022/06/18 01:23:21;;;;;;;6.45;3.70;;;21.60;92.00;;;;;;5021718;28;20057;-73
2022/06/18 01:25:47;;;;;;;8.15;3.83;;;21.60;92.00;;;;;;5016331;28;20034;-74
2022/06/18 01:28:17;;;;;;;8.10;3.83;;;21.50;92.10;;;;;;5027907;28;20108;-73
2022/06/18 01:30:43;;;;;;;7.47;3.60;;;21.50;92.20;;;;;;5012064;28;20045;-73
2022/06/18 01:33:10;;;;;;;8.15;4.00;;;21.50;92.40;;;;;;5024402;28;20385;-74
2022/06/18 01:35:40;;;;;;;8.93;3.88;;;21.50;92.50;;;;;;5024955;28;20046;-72
2022/06/18 01:38:05;;;;;;;8.18;4.63;;;21.40;92.50;;;;;;5021325;28;20136;-73
2022/06/18 01:43:48;;;;;;;9.55;4.90;;;21.40;92.50;;;;;;5018779;28;20611;-73
2022/06/18 01:46:14;;;;;;;10.55;5.10;;;21.30;92.80;;;;;;5023448;28;20042;-73
2022/06/18 01:48:43;;;;;;;11.50;4.45;;;21.30;92.90;;;;;;5023352;28;20122;-73
2022/06/18 01:51:16;;;;;;;11.60;5.00;;;21.20;93.00;;;;;;5020995;28;20098;-72
2022/06/18 01:53:50;;;;;;;8.43;4.50;;;21.30;93.10;;;;;;5018338;28;20073;-73
2022/06/18 01:56:28;;;;;;;6.63;4.60;;;21.30;93.20;;;;;;5023132;28;20124;-73
2022/06/18 01:59:08;;;;;;;7.72;5.20;;;21.30;93.30;;;;;;5022187;28;20044;-73
2022/06/18 02:01:38;;;;;;;11.23;5.22;;;21.20;93.30;;;;;;5020630;28;20050;-74
2022/06/18 02:04:08;;;;;;;11.20;5.55;;;21.20;93.60;;;;;;5024354;28;20054;-72
2022/06/18 02:06:36;;;;;;;10.23;5.72;;;21.10;94.00;;;;;;5022589;28;20113;-72
2022/06/18 02:09:07;;;;;;;11.90;6.00;;;21.10;93.90;;;;;;5021870;28;20094;-73
2022/06/18 02:11:39;;;;;;;15.85;6.82;;;21.10;94.10;;;;;;5024989;28;20046;-72
2022/06/18 02:14:11;;;;;;;10.15;5.82;;;21.00;94.40;;;;;;5022918;28;20049;-74
2022/06/18 02:16:44;;;;;;;11.48;6.13;;;21.00;94.60;;;;;;5021486;28;20476;-72
2022/06/18 02:19:10;;;;;;;8.88;6.22;;;20.90;94.90;;;;;;5024655;28;20124;-73
2022/06/18 02:21:42;;;;;;;8.30;5.75;;;20.90;95.20;;;;;;5021848;28;20042;-72
2022/06/18 02:24:09;;;;;;;10.77;6.20;;;20.90;95.30;;;;;;5024120;28;20427;-73
2022/06/18 02:26:36;;;;;;;13.80;6.20;;;20.90;95.60;;;;;;5023751;28;20091;-72
2022/06/18 02:29:04;;;;;;;19.35;6.80;;;20.90;95.80;;;;;;5024026;28;20144;-73
2022/06/18 02:31:34;;;;;;;11.60;6.82;;;20.80;96.10;;;;;;5019122;28;20051;-72
2022/06/18 02:34:08;;;;;;;9.98;6.13;;;20.80;96.40;;;;;;5024653;28;20145;-72
2022/06/18 02:36:36;;;;;;;11.68;6.07;;;20.80;96.60;;;;;;5022335;28;20090;-73
2022/06/18 02:39:23;;;;;;;10.20;6.85;;;20.80;97.10;;;;;;5020622;28;20038;-73
2022/06/18 02:42:11;;;;;;;12.43;6.75;;;20.70;97.40;;;;;;5009412;28;20045;-73
2022/06/18 02:44:44;;;;;;;15.65;7.82;;;20.70;97.80;;;;;;5017445;28;20040;-73
2022/06/18 02:47:12;;;;;;;18.10;8.07;;;20.60;98.10;;;;;;5021933;28;20109;-73
2022/06/18 02:49:45;;;;;;;13.10;7.10;;;20.60;98.50;;;;;;5023892;28;20056;-73
2022/06/18 02:52:11;;;;;;;11.60;7.97;;;20.60;98.60;;;;;;5023859;28;20050;-73
2022/06/18 02:54:37;;;;;;;13.43;7.53;;;20.50;99.10;;;;;;5026598;28;20050;-72
2022/06/18 02:57:08;;;;;;;13.52;8.30;;;20.50;99.40;;;;;;5023058;28;20390;-73
2022/06/18 02:59:33;;;;;;;13.52;7.85;;;20.40;99.60;;;;;;5022426;28;20114;-74
2022/06/18 03:01:59;;;;;;;9.77;7.38;;;20.40;99.90;;;;;;5024116;28;20041;-72
2022/06/18 03:04:25;;;;;;;17.73;8.10;;;20.30;99.90;;;;;;5024547;28;20137;-72
2022/06/18 03:06:50;;;;;;;11.65;7.57;;;20.30;99.90;;;;;;5022211;28;20083;-73
2022/06/18 03:09:16;;;;;;;15.75;8.70;;;20.20;99.90;;;;;;5022577;28;20132;-73
2022/06/18 03:14:26;;;;;;;12.30;7.70;;;20.20;99.90;;;;;;5020908;28;20046;-72
2022/06/18 03:16:51;;;;;;;14.60;8.85;;;20.10;99.90;;;;;;5017441;28;20041;-73
2022/06/18 03:19:29;;;;;;;14.73;8.23;;;20.10;99.90;;;;;;5018137;28;20156;-72
2022/06/18 03:22:07;;;;;;;13.55;8.93;;;20.10;99.90;;;;;;5022040;28;20131;-72
2022/06/18 03:24:33;;;;;;;16.08;9.35;;;20.00;99.90;;;;;;5013004;28;20045;-72
2022/06/18 03:26:58;;;;;;;15.93;8.77;;;20.00;99.90;;;;;;5021737;28;20183;-72
2022/06/18 03:29:25;;;;;;;18.80;9.70;;;20.00;99.90;;;;;;5019810;28;20053;-72
2022/06/18 03:31:50;;;;;;;16.60;9.10;;;19.90;99.90;;;;;;5021856;28;20113;-73
2022/06/18 03:34:19;;;;;;;14.02;8.85;;;19.80;99.90;;;;;;5021267;28;20156;-73
2022/06/18 03:36:45;;;;;;;15.98;10.52;;;19.80;99.90;;;;;;5023910;28;20052;-72
2022/06/18 03:39:12;;;;;;;19.42;11.52;;;19.80;99.90;;;;;;5021324;28;20037;-72
2022/06/18 03:41:37;;;;;;;15.98;10.65;;;19.80;99.90;;;;;;5022321;28;20495;-73
2022/06/18 03:44:06;;;;;;;18.63;10.60;;;19.70;99.90;;;;;;5021106;28;20483;-72
2022/06/18 03:46:35;;;;;;;16.17;11.43;;;19.60;99.90;;;;;;5021109;28;20042;-73
2022/06/18 03:49:02;;;;;;;16.05;11.43;;;19.60;99.90;;;;;;5022434;28;20053;-73
2022/06/18 03:51:29;;;;;;;23.08;12.05;;;19.50;99.90;;;;;;5022054;28;20068;-72
2022/06/18 03:53:56;;;;;;;19.17;11.65;;;19.50;99.90;;;;;;5016055;28;20465;-73
2022/06/18 03:56:25;;;;;;;19.08;11.73;;;19.50;99.90;;;;;;5022283;28;20086;-72
2022/06/18 03:58:51;;;;;;;22.55;12.30;;;19.40;99.90;;;;;;5021694;28;20081;-73
2022/06/18 04:01:22;;;;;;;27.85;12.20;;;19.40;99.90;;;;;;5003290;28;20046;-72
2022/06/18 04:03:48;;;;;;;23.15;12.50;;;19.30;99.90;;;;;;5023721;28;20041;-72
2022/06/18 04:06:16;;;;;;;21.35;12.30;;;19.30;99.90;;;;;;5021585;28;20116;-72
2022/06/18 04:08:43;;;;;;;24.38;12.88;;;19.30;99.90;;;;;;5020011;28;20098;-72
2022/06/18 04:11:10;;;;;;;21.83;11.93;;;19.20;99.90;;;;;;5022764;28;20049;-72
2022/06/18 04:13:36;;;;;;;19.30;13.20;;;19.20;99.90;;;;;;5020102;28;20132;-73
2022/06/18 04:16:01;;;;;;;25.67;12.75;;;19.20;99.90;;;;;;5016232;28;20121;-73
2022/06/18 04:18:27;;;;;;;27.73;13.32;;;19.20;99.90;;;;;;5018403;28;20479;-72
2022/06/18 04:20:54;;;;;;;25.70;13.18;;;19.20;99.90;;;;;;5024089;28;20054;-72
2022/06/18 04:23:20;;;;;;;18.73;12.75;;;19.10;99.90;;;;;;5015419;28;20081;-73
2022/06/18 04:25:46;;;;;;;22.33;12.57;;;19.10;99.90;;;;;;5026217;28;20412;-73
2022/06/18 04:28:14;;;;;;;28.60;13.60;;;19.10;99.90;;;;;;5022915;28;20136;-72
2022/06/18 04:30:39;;;;;;;23.30;13.07;;;19.10;99.90;;;;;;5025684;28;20042;-72
2022/06/18 04:33:06;;;;;;;24.77;14.63;;;19.00;99.90;;;;;;5025454;28;20054;-72
2022/06/18 04:35:32;;;;;;;21.98;12.95;;;19.00;99.90;;;;;;5023387;28;20349;-73
2022/06/18 04:37:57;;;;;;;22.05;13.05;;;19.00;99.90;;;;;;5022409;28;20110;-72
2022/06/18 04:40:31;;;;;;;24.50;12.45;;;19.00;99.90;;;;;;5027155;28;20041;-72
2022/06/18 04:43:01;;;;;;;23.75;14.40;;;19.00;99.90;;;;;;5022017;28;20467;-72
2022/06/18 04:45:28;;;;;;;20.45;13.43;;;19.00;99.90;;;;;;5023452;28;20106;-73
2022/06/18 04:47:54;;;;;;;23.88;14.15;;;18.90;99.90;;;;;;5025356;28;20081;-72
2022/06/18 04:50:29;;;;;;;25.42;11.88;;;19.00;99.90;;;;;;5025678;28;20073;-72
2022/06/18 04:52:55;;;;;;;27.02;13.13;;;19.00;99.90;;;;;;5024762;28;20114;-73
2022/06/18 04:55:21;;;;;;;22.75;13.27;;;19.00;99.90;;;;;;5024718;28;20050;-73
2022/06/18 04:57:47;;;;;;;26.60;13.75;;;19.00;99.90;;;;;;5023249;28;20067;-73
2022/06/18 05:00:13;;;;;;;24.05;12.38;;;19.10;99.90;;;;;;5022315;28;20042;-73
2022/06/18 05:02:39;;;;;;;24.10;12.35;;;19.10;99.90;;;;;;5022078;28;20064;-72
2022/06/18 05:05:08;;;;;;;25.35;12.52;;;19.10;99.90;;;;;;5020904;28;20083;-73
2022/06/18 05:07:34;;;;;;;27.70;12.45;;;19.10;99.90;;;;;;5024252;28;20041;-73
2022/06/18 05:09:59;;;;;;;26.20;12.60;;;19.10;99.90;;;;;;5023505;28;20052;-72
2022/06/18 05:12:25;;;;;;;25.45;12.30;;;19.20;99.90;;;;;;5027815;28;20102;-72
2022/06/18 05:14:51;;;;;;;34.20;13.95;;;19.20;99.90;;;;;;5020753;28;20495;-72
2022/06/18 05:17:24;;;;;;;23.60;13.25;;;19.20;99.90;;;;;;5021848;28;20040;-73
2022/06/18 05:19:53;;;;;;;25.98;12.60;;;19.20;99.90;;;;;;5024244;28;20167;-73
2022/06/18 05:22:19;;;;;;;30.73;13.50;;;19.20;99.90;;;;;;5005229;28;20045;-73
2022/06/18 05:24:45;;;;;;;21.08;12.05;;;19.30;99.90;;;;;;5021020;28;20045;-72
2022/06/18 05:27:33;;;;;;;28.90;12.32;;;19.30;99.90;;;;;;5023784;28;20126;-72
2022/06/18 05:29:59;;;;;;;23.60;12.40;;;19.30;99.90;;;;;;5025652;28;20176;-72
2022/06/18 05:32:25;;;;;;;27.25;14.15;;;19.30;99.90;;;;;;5022713;28;20055;-72
2022/06/18 05:34:51;;;;;;;28.45;13.60;;;19.30;99.90;;;;;;5023619;28;20125;-72
2022/06/18 05:37:23;;;;;;;26.77;11.85;;;19.30;99.90;;;;;;5022842;28;20065;-72
2022/06/18 05:39:49;;;;;;;22.10;12.60;;;19.30;99.90;;;;;;5020998;28;20054;-74
2022/06/18 05:42:17;;;;;;;23.65;12.52;;;19.30;99.90;;;;;;5023908;28;20053;-73
2022/06/18 05:44:43;;;;;;;28.05;12.82;;;19.40;99.90;;;;;;5025466;28;20045;-72
2022/06/18 05:47:13;;;;;;;27.90;13.27;;;19.40;99.90;;;;;;5022029;28;20061;-72
2022/06/18 05:49:38;;;;;;;23.95;12.38;;;19.50;99.90;;;;;;5024575;28;20041;-72
2022/06/18 05:52:04;;;;;;;17.23;11.52;;;19.40;99.90;;;;;;5022466;28;20061;-72
2022/06/18 05:54:30;;;;;;;23.20;12.07;;;19.40;99.90;;;;;;5022009;28;20106;-72
2022/06/18 05:56:59;;;;;;;24.00;12.20;;;19.50;99.90;;;;;;5024943;28;20045;-72
2022/06/18 05:59:25;;;;;;;19.88;11.10;;;19.50;99.90;;;;;;5022030;28;20040;-71
2022/06/18 06:01:50;;;;;;;19.75;10.88;;;19.50;99.90;;;;;;5034920;28;20052;-74
2022/06/18 06:04:19;;;;;;;20.40;11.00;;;19.60;99.90;;;;;;5023457;28;20034;-75
2022/06/18 06:06:45;;;;;;;27.30;11.52;;;19.60;99.90;;;;;;5021234;28;20053;-72
2022/06/18 06:11:28;;;;;;;26.67;11.27;;;19.70;99.90;;;;;;5024131;28;20037;-73
2022/06/18 06:12:00;;;;;;;20.33;11.48;;;19.70;99.90;;;;;;5023247;28;20497;-73
2022/06/18 06:14:25;;;;;;;19.98;11.30;;;19.80;99.90;;;;;;5031443;28;20087;-73
2022/06/18 06:16:51;;;;;;;18.35;10.63;;;19.90;99.90;;;;;;5021226;28;20113;-73
2022/06/18 06:19:17;;;;;;;22.48;9.88;;;19.90;99.90;;;;;;5024553;28;20167;-73
2022/06/18 06:21:42;;;;;;;18.27;9.20;;;19.90;99.90;;;;;;5024526;28;20053;-73
2022/06/18 06:24:08;;;;;;;18.05;9.68;;;20.00;99.90;;;;;;5018970;28;20049;-72
2022/06/18 06:26:35;;;;;;;23.38;9.55;;;20.00;99.90;;;;;;5021355;28;20576;-73
2022/06/18 06:29:01;;;;;;;18.42;9.95;;;20.20;99.90;;;;;;5022051;28;20086;-73
2022/06/18 06:31:28;;;;;;;22.27;9.65;;;20.20;99.90;;;;;;5024382;28;20173;-73
2022/06/18 06:33:55;;;;;;;22.02;9.73;;;20.20;99.90;;;;;;5018946;28;20113;-73
2022/06/18 06:36:21;;;;;;;15.70;9.20;;;20.20;99.90;;;;;;5020524;28;20037;-72
2022/06/18 06:38:47;;;;;;;18.90;8.65;;;20.20;99.90;;;;;;5020896;28;20038;-72
2022/06/18 06:41:18;;;;;;;18.13;8.18;;;20.30;99.90;;;;;;5021970;28;20452;-72
2022/06/18 06:43:43;;;;;;;18.42;9.07;;;20.30;99.90;;;;;;5022395;28;20037;-72
2022/06/18 06:46:12;;;;;;;18.55;8.27;;;20.40;99.90;;;;;;5026214;28;20045;-73
2022/06/18 06:48:38;;;;;;;19.17;8.10;;;20.40;99.90;;;;;;5017381;28;20060;-72
2022/06/18 06:51:16;;;;;;;20.63;8.38;;;20.40;99.90;;;;;;5025309;28;20045;-73
2022/06/18 06:53:42;;;;;;;16.20;7.78;;;20.40;99.90;;;;;;5018968;28;20144;-73
2022/06/18 06:58:57;;;;;;;16.60;7.47;;;20.60;99.90;;;;;;5026151;28;20046;-72
2022/06/18 07:01:23;;;;;;;17.45;8.00;;;20.60;99.90;;;;;;5020431;28;20236;-73
2022/06/18 07:03:52;;;;;;;15.68;7.60;;;20.60;99.90;;;;;;5023313;28;20065;-72
2022/06/18 07:06:18;;;;;;;12.25;6.50;;;20.70;99.90;;;;;;5023582;28;20078;-72
2022/06/18 07:08:44;;;;;;;15.05;7.18;;;20.70;99.90;;;;;;5005234;28;20134;-72
2022/06/18 07:11:11;;;;;;;16.52;6.43;;;20.70;99.90;;;;;;5005484;28;20072;-72
2022/06/18 07:13:40;;;;;;;18.73;7.05;;;20.70;99.90;;;;;;5010780;28;20136;-72
2022/06/18 07:16:09;;;;;;;13.93;6.63;;;20.80;99.90;;;;;;5016852;28;20109;-72
2022/06/18 07:18:36;;;;;;;15.57;6.93;;;20.80;99.90;;;;;;5022796;28;20049;-73
2022/06/18 07:21:04;;;;;;;21.83;8.20;;;20.80;99.90;;;;;;5024678;28;20141;-72
2022/06/18 07:23:30;;;;;;;14.65;7.90;;;20.80;99.90;;;;;;5022676;28;20107;-73
2022/06/18 07:25:56;;;;;;;22.27;7.53;;;20.80;99.90;;;;;;5024145;28;20521;-72
2022/06/18 07:28:22;;;;;;;23.75;8.52;;;20.80;99.90;;;;;;5020615;28;20060;-72
2022/06/18 07:30:48;;;;;;;18.10;6.72;;;20.90;99.90;;;;;;5024600;28;20745;-73
2022/06/18 07:33:22;;;;;;;18.60;6.88;;;20.90;99.90;;;;;;5023109;28;20050;-72
2022/06/18 07:35:48;;;;;;;19.77;6.78;;;20.90;99.90;;;;;;5024843;28;20056;-72
2022/06/18 07:38:14;;;;;;;17.65;7.47;;;20.90;99.90;;;;;;5020243;28;20038;-72
2022/06/18 07:40:52;;;;;;;16.45;6.20;;;21.00;99.90;;;;;;5023189;28;20110;-72
2022/06/18 07:43:24;;;;;;;15.85;5.72;;;21.00;99.90;;;;;;5020536;28;20060;-74
2022/06/18 07:45:50;;;;;;;14.40;6.05;;;21.00;99.90;;;;;;5022725;28;20053;-73
2022/06/18 07:48:15;;;;;;;13.93;6.22;;;21.00;99.90;;;;;;5020419;28;20038;-74
2022/06/18 07:50:46;;;;;;;10.50;5.20;;;21.00;99.90;;;;;;5028511;28;20484;-74
2022/06/18 07:53:17;;;;;;;13.10;5.18;;;21.10;99.90;;;;;;5021476;28;20057;-73
2022/06/18 07:55:43;;;;;;;14.70;5.18;;;21.10;99.90;;;;;;5025310;28;20049;-74
2022/06/18 07:58:08;;;;;;;9.10;3.75;;;21.10;99.90;;;;;;5025774;28;20392;-74
2022/06/18 08:00:35;;;;;;;12.23;3.78;;;21.20;99.90;;;;;;5018664;28;20041;-74
2022/06/18 08:03:05;;;;;;;12.48;3.08;;;21.20;99.90;;;;;;5017097;28;20052;-74
2022/06/18 08:05:34;;;;;;;9.95;3.47;;;21.30;99.90;;;;;;5025050;28;20113;-74
2022/06/18 08:07:59;;;;;;;10.32;3.00;;;21.30;99.90;;;;;;5025216;28;20136;-74
2022/06/18 08:10:25;;;;;;;9.50;3.08;;;21.30;99.90;;;;;;5026408;28;20136;-73
2022/06/18 08:12:51;;;;;;;6.70;2.80;;;21.40;99.90;;;;;;5020525;28;20072;-73
2022/06/18 08:15:19;;;;;;;10.18;2.60;;;21.50;99.90;;;;;;5017641;28;20065;-74
2022/06/18 08:17:45;;;;;;;7.90;2.92;;;21.50;99.90;;;;;;5017937;28;20053;-73
2022/06/18 08:20:11;;;;;;;5.63;2.00;;;21.60;99.90;;;;;;5023513;28;20041;-73
2022/06/18 08:22:39;;;;;;;5.03;1.65;;;21.70;99.90;;;;;;5020945;28;20513;-74
2022/06/18 08:25:06;;;;;;;6.97;2.47;;;21.70;99.90;;;;;;5026357;28;20045;-73
2022/06/18 08:27:32;;;;;;;6.60;2.30;;;21.80;99.90;;;;;;5021729;28;20041;-74
2022/06/18 08:30:01;;;;;;;4.60;1.50;;;21.80;99.90;;;;;;5027054;28;20042;-74
2022/06/18 08:32:27;;;;;;;6.63;1.90;;;21.80;99.90;;;;;;5025662;28;20080;-74
2022/06/18 08:34:52;;;;;;;5.90;1.70;;;21.90;99.90;;;;;;5016183;28;20085;-74
2022/06/18 08:37:18;;;;;;;8.50;1.90;;;21.90;99.90;;;;;;5020956;28;20046;-73
2022/06/18 08:39:44;;;;;;;5.82;1.95;;;21.90;99.90;;;;;;5017297;28;20072;-75
2022/06/18 08:42:41;;;;;;;2.80;1.67;;;22.00;99.90;;;;;;5021027;28;20485;-73
2022/06/18 08:45:35;;;;;;;5.63;2.10;;;21.90;99.90;;;;;;5024454;28;20077;-74
2022/06/18 08:48:30;;;;;;;6.85;1.80;;;21.90;99.90;;;;;;5022068;28;20198;-74
2022/06/18 08:51:37;;;;;;;4.85;1.65;;;21.90;99.90;;;;;;5022880;28;20041;-74
2022/06/18 08:54:21;;;;;;;8.15;2.00;;;21.90;99.90;;;;;;5021377;28;20080;-74
2022/06/18 08:56:58;;;;;;;3.65;1.40;;;21.90;99.90;;;;;;5007576;28;20053;-74
2022/06/18 08:59:33;;;;;;;3.40;1.58;;;21.90;99.90;;;;;;5021317;28;20041;-72
2022/06/18 09:02:22;;;;;;;3.35;1.13;;;22.00;99.90;;;;;;5023376;28;20053;-74
2022/06/18 09:05:05;;;;;;;3.13;1.50;;;21.90;99.90;;;;;;5024262;28;20080;-74
2022/06/18 09:07:53;;;;;;;7.93;2.50;;;22.00;99.90;;;;;;5020987;28;20548;-75
2022/06/18 09:10:22;;;;;;;4.45;1.52;;;22.00;99.90;;;;;;5018363;28;20055;-80
2022/06/18 09:12:58;;;;;;;4.85;1.60;;;22.00;99.90;;;;;;5022353;28;20049;-75
2022/06/18 09:15:36;;;;;;;3.17;1.25;;;22.00;99.90;;;;;;5022296;28;20488;-75
2022/06/18 09:18:13;;;;;;;4.78;1.33;;;22.00;99.90;;;;;;5013005;28;20046;-74
2022/06/18 09:20:48;;;;;;;3.72;1.23;;;22.00;99.90;;;;;;5016354;28;20060;-75
2022/06/18 09:23:25;;;;;;;7.78;1.85;;;22.00;99.90;;;;;;5013169;28;20057;-76
2022/06/18 09:25:53;;;;;;;5.45;1.95;;;22.00;99.90;;;;;;5006360;28;20096;-76
2022/06/18 09:28:27;;;;;;;4.13;1.40;;;22.00;99.90;;;;;;5019751;28;20115;-75
2022/06/18 09:31:16;;;;;;;5.05;1.80;;;22.00;99.90;;;;;;5018944;28;20040;-76
2022/06/18 09:34:19;;;;;;;4.07;1.38;;;22.00;99.90;;;;;;5021468;28;20121;-76
2022/06/18 09:36:50;;;;;;;4.68;1.60;;;22.10;99.90;;;;;;5024957;28;20353;-75
2022/06/18 09:39:25;;;;;;;5.03;1.70;;;22.00;99.90;;;;;;5022899;28;20076;-74
2022/06/18 09:42:05;;;;;;;6.10;1.98;;;22.00;99.90;;;;;;5026945;28;20046;-77
2022/06/18 09:44:41;;;;;;;4.47;1.70;;;22.00;99.90;;;;;;5025705;28;20049;-76
2022/06/18 09:47:38;;;;;;;7.22;1.85;;;22.00;99.90;;;;;;5014020;28;20410;-76
2022/06/18 09:50:13;;;;;;;5.20;2.40;;;22.10;99.90;;;;;;5018230;28;20061;-76
2022/06/18 09:52:41;;;;;;;4.60;2.00;;;22.10;99.90;;;;;;4987580;28;20058;-75
2022/06/18 09:55:16;;;;;;;7.90;1.95;;;22.10;99.90;;;;;;5012906;28;20049;-74
2022/06/18 09:57:48;;;;;;;5.60;1.95;;;22.20;99.90;;;;;;5015148;28;20124;-81
2022/06/18 10:00:18;;;;;;;5.05;2.03;;;22.30;99.90;;;;;;5018367;28;20060;-75
2022/06/18 10:02:59;;;;;;;6.47;1.80;;;22.30;99.90;;;;;;5012774;28;20041;-74
2022/06/18 10:08:19;;;;;;;9.02;1.80;;;22.40;99.90;;;;;;5022469;28;19929;-75
2022/06/18 10:10:54;;;;;;;8.57;2.67;;;22.40;99.90;;;;;;5024230;28;20046;-75
2022/06/18 10:13:25;;;;;;;5.28;2.17;;;22.50;99.90;;;;;;5024726;28;20148;-74
2022/06/18 10:15:56;;;;;;;3.80;1.60;;;22.40;99.90;;;;;;5024311;28;20034;-74
2022/06/18 10:18:59;;;;;;;3.47;1.40;;;22.40;99.90;;;;;;5023696;28;20071;-74
2022/06/18 10:22:03;;;;;;;5.00;1.67;;;22.40;99.90;;;;;;5023037;28;20187;-74
2022/06/18 10:24:59;;;;;;;5.00;1.60;;;22.50;99.90;;;;;;5014150;28;20113;-77
2022/06/18 10:27:34;;;;;;;5.50;1.80;;;22.60;99.90;;;;;;5018295;28;20137;-74
2022/06/18 10:30:13;;;;;;;5.25;1.67;;;22.60;99.90;;;;;;5020314;28;20050;-74
2022/06/18 10:32:59;;;;;;;4.72;1.60;;;22.70;99.90;;;;;;5025143;28;20427;-75
2022/06/18 10:35:47;;;;;;;2.97;1.13;;;22.80;99.90;;;;;;5023848;28;20493;-75
2022/06/18 10:38:15;;;;;;;3.08;0.90;;;22.80;99.90;;;;;;5018783;28;20057;-74
2022/06/18 10:41:02;;;;;;;2.80;1.20;;;22.80;99.90;;;;;;5024528;28;20112;-74
2022/06/18 10:43:46;;;;;;;5.28;1.10;;;22.90;99.90;;;;;;5024075;28;20193;-74
2022/06/18 10:46:23;;;;;;;2.80;1.00;;;22.90;99.90;;;;;;5019262;28;20080;-74
2022/06/18 10:48:53;;;;;;;2.33;1.23;;;23.00;99.90;;;;;;5016568;28;20124;-75
2022/06/18 10:51:23;;;;;;;2.35;0.80;;;23.10;99.90;;;;;;5019088;28;20092;-74
2022/06/18 10:53:54;;;;;;;6.25;1.30;;;23.10;99.90;;;;;;5017515;28;20058;-74
2022/06/18 10:56:46;;;;;;;3.15;0.98;;;23.20;99.90;;;;;;5014701;28;20553;-75
2022/06/18 10:59:12;;;;;;;11.77;1.48;;;23.20;99.90;;;;;;5019538;28;20129;-74
2022/06/18 11:01:47;;;;;;;9.00;1.40;;;23.20;99.90;;;;;;5014333;28;20189;-74
2022/06/18 11:04:20;;;;;;;3.95;0.98;;;23.30;99.90;;;;;;5015315;28;20034;-74
2022/06/18 11:06:58;;;;;;;6.93;1.05;;;23.40;99.90;;;;;;5012288;28;20056;-75
2022/06/18 11:09:33;;;;;;;1.80;0.82;;;23.50;99.90;;;;;;5013690;28;20125;-74
2022/06/18 11:12:07;;;;;;;2.13;0.73;;;23.60;99.90;;;;;;5009338;28;20372;-74
2022/06/18 11:14:40;;;;;;;3.90;2.08;;;23.60;99.90;;;;;;5021935;28;20045;-74
2022/06/18 11:17:43;;;;;;;5.57;1.17;;;23.70;99.90;;;;;;5014639;28;20037;-74
2022/06/18 11:20:11;;;;;;;2.83;0.98;;;23.70;99.90;;;;;;5019606;28;20545;-74
2022/06/18 11:22:37;;;;;;;3.00;0.98;;;23.70;99.90;;;;;;5021622;28;20046;-75
2022/06/18 11:25:19;;;;;;;4.80;1.10;;;23.80;99.90;;;;;;5029039;28;20489;-75
2022/06/18 11:27:47;;;;;;;3.47;1.15;;;23.90;99.90;;;;;;5018651;28;20054;-75
2022/06/18 11:30:31;;;;;;;6.70;1.17;;;23.80;99.90;;;;;;5028525;28;20042;-75
2022/06/18 11:32:58;;;;;;;8.48;1.45;;;23.70;99.90;;;;;;5025436;28;20049;-74
2022/06/18 11:35:30;;;;;;;9.63;1.95;;;23.70;99.90;;;;;;5029751;28;20045;-76
2022/06/18 11:38:02;;;;;;;5.50;1.27;;;23.70;99.90;;;;;;5028085;28;20403;-75
2022/06/18 11:40:32;;;;;;;74.43;4.50;;;23.60;99.90;;;;;;5010009;28;20052;-75
2022/06/18 11:43:19;;;;;;;21.95;2.17;;;23.60;99.90;;;;;;5021766;28;20087;-77
2022/06/18 11:45:55;;;;;;;94.47;5.97;;;23.70;99.70;;;;;;5027394;28;20057;-76
2022/06/18 11:48:40;;;;;;;16.10;2.17;;;23.60;99.50;;;;;;5014491;28;20126;-76
2022/06/18 11:51:21;;;;;;;5.00;1.13;;;23.60;99.30;;;;;;5028610;28;20153;-76
2022/06/18 11:53:56;;;;;;;7.45;1.13;;;23.60;99.10;;;;;;5025854;28;20065;-76
2022/06/18 11:56:44;;;;;;;4.28;1.02;;;23.60;98.80;;;;;;5025999;28;20068;-77
2022/06/18 11:59:36;;;;;;;8.60;1.23;;;23.60;98.30;;;;;;5024179;28;20045;-74
2022/06/18 12:02:28;;;;;;;3.55;0.98;;;23.50;98.10;;;;;;5023736;28;20066;-75
2022/06/18 12:05:09;;;;;;;5.57;1.25;;;23.50;97.90;;;;;;5020588;28;20081;-75
2022/06/18 12:07:41;;;;;;;7.35;1.48;;;23.40;97.70;;;;;;5020569;28;20052;-75
2022/06/18 12:10:13;;;;;;;7.28;1.20;;;23.50;97.10;;;;;;5025775;28;20170;-75
2022/06/18 12:13:08;;;;;;;8.20;1.15;;;23.40;97.10;;;;;;5018168;28;20739;-74
2022/06/18 12:15:37;;;;;;;8.60;1.38;;;23.40;97.30;;;;;;5015853;28;20088;-74
2022/06/18 12:18:21;;;;;;;7.47;1.55;;;23.40;97.60;;;;;;5022174;28;20045;-76
2022/06/18 12:21:03;;;;;;;3.40;1.00;;;23.40;97.20;;;;;;5022228;28;20125;-76
2022/06/18 12:23:41;;;;;;;5.45;1.13;;;23.40;97.40;;;;;;5017500;28;20106;-76
2022/06/18 12:26:18;;;;;;;10.15;1.42;;;23.50;97.20;;;;;;5015651;28;20050;-77
2022/06/18 12:28:52;;;;;;;4.03;1.10;;;23.50;97.00;;;;;;5018431;28;20045;-77
2022/06/18 12:32:03;;;;;;;7.22;1.75;;;23.50;96.90;;;;;;5023227;28;20077;-77
2022/06/18 12:34:55;;;;;;;7.97;1.60;;;23.50;96.90;;;;;;4965980;28;20047;-76
2022/06/18 12:37:51;;;;;;;4.80;1.20;;;23.50;96.80;;;;;;5023130;28;20045;-76
2022/06/18 12:40:38;;;;;;;6.22;1.45;;;23.60;96.60;;;;;;5004023;28;20054;-76
2022/06/18 12:43:06;;;;;;;20.77;2.15;;;23.60;96.30;;;;;;5021921;28;20045;-76
2022/06/18 12:45:52;;;;;;;8.00;1.40;;;23.50;95.90;;;;;;5007077;28;20056;-76
2022/06/18 12:48:45;;;;;;;43.80;3.17;;;23.50;95.60;;;;;;5010948;28;20076;-76
2022/06/18 12:51:36;;;;;;;12.13;1.80;;;23.50;95.30;;;;;;5027175;28;20528;-75
2022/06/18 12:54:35;;;;;;;7.68;1.50;;;23.40;95.20;;;;;;5027420;28;20065;-75
2022/06/18 12:57:16;;;;;;;6.93;1.42;;;23.40;94.70;;;;;;5007241;28;20049;-81
2022/06/18 13:00:02;;;;;;;11.13;2.42;;;23.30;94.50;;;;;;5005385;28;20053;-77
2022/06/18 13:02:41;;;;;;;9.38;1.70;;;23.30;94.60;;;;;;5008484;28;20125;-75
2022/06/18 13:05:10;;;;;;;10.00;1.88;;;23.30;94.30;;;;;;5010397;28;20054;-76
2022/06/18 13:07:41;;;;;;;9.98;2.00;;;23.30;93.90;;;;;;5010838;28;20053;-76
2022/06/18 13:10:10;;;;;;;6.15;1.73;;;23.30;93.50;;;;;;4979168;28;20058;-76
2022/06/18 13:13:02;;;;;;;10.00;1.58;;;23.30;93.10;;;;;;4974185;28;20378;-74
2022/06/18 13:15:33;;;;;;;7.82;1.38;;;23.20;92.70;;;;;;5017036;28;20053;-78
2022/06/18 13:18:14;;;;;;;7.75;1.88;;;23.30;92.60;;;;;;5065033;28;20070;-76
2022/06/18 13:20:44;;;;;;;5.57;1.60;;;23.30;91.90;;;;;;5046739;28;20095;-75
2022/06/18 13:29:06;;;;;;;9.15;1.60;;;23.10;91.60;;;;;;5023837;28;20001;-76